Time;durP1;ratioP1;P1;durP2;ratioP2;P2;SDS_P1;SDS_P2;PMS_P1;PMS_P2;Temp;Humidity;BMP_temperature;BMP_pressure;BME280_temperature;BME280_humidity;BME280_pressure;Samples;Min_cycle;Max_cycle;Signal;HPM_P1;HPM_P2
2022/05/08 00:01:29;;;;;;;37.15;7.15;;;;;;;5.71;100.00;102753.19;4940491;28;20052;-70
2022/05/08 00:03:54;;;;;;;29.65;6.78;;;;;;;5.67;100.00;102756.28;4923927;28;20046;-71
2022/05/08 00:06:19;;;;;;;29.65;7.72;;;;;;;5.62;100.00;102747.81;4913590;28;20081;-71
2022/05/08 00:08:45;;;;;;;45.60;7.30;;;;;;;5.62;100.00;102747.81;4924393;28;20318;-70
2022/05/08 00:11:11;;;;;;;28.90;7.47;;;;;;;5.58;100.00;102755.25;4910304;28;20077;-70
2022/05/08 00:13:36;;;;;;;28.23;6.80;;;;;;;5.68;100.00;102752.63;4925739;28;20045;-70
2022/05/08 00:16:03;;;;;;;41.00;7.07;;;;;;;5.70;100.00;102756.00;4914624;28;20052;-70
2022/05/08 00:18:28;;;;;;;30.33;7.75;;;;;;;5.72;100.00;102748.69;4926110;28;20039;-70
2022/05/08 00:20:54;;;;;;;28.25;6.75;;;;;;;5.78;100.00;102756.19;4912030;28;20038;-70
2022/05/08 00:23:19;;;;;;;32.00;6.88;;;;;;;5.77;100.00;102757.16;4943628;28;20042;-70
2022/05/08 00:25:44;;;;;;;34.65;7.57;;;;;;;5.78;100.00;102750.84;4936678;28;20969;-70
2022/05/08 00:28:10;;;;;;;39.75;7.65;;;;;;;5.81;100.00;102757.75;4910170;28;20428;-70
2022/05/08 00:30:36;;;;;;;41.08;7.85;;;;;;;5.87;100.00;102752.72;4924633;28;20058;-70
2022/05/08 00:33:01;;;;;;;34.63;8.05;;;;;;;5.86;100.00;102753.69;4901468;28;20042;-70
2022/05/08 00:35:27;;;;;;;35.35;7.72;;;;;;;5.84;100.00;102750.31;4931508;28;20031;-71
2022/05/08 00:37:52;;;;;;;36.38;7.40;;;;;;;5.82;100.00;102754.91;4920264;28;21108;-71
2022/05/08 00:40:18;;;;;;;31.02;6.85;;;;;;;5.82;100.00;102749.56;4926161;28;20030;-71
2022/05/08 00:42:44;;;;;;;31.23;6.97;;;;;;;5.72;100.00;102757.59;4941198;28;20730;-72
2022/05/08 00:45:10;;;;;;;31.38;6.80;;;;;;;5.59;100.00;102748.09;4907374;28;20046;-71
2022/05/08 00:47:36;;;;;;;35.58;7.70;;;;;;;5.59;100.00;102742.75;4925055;28;21636;-70
2022/05/08 00:50:01;;;;;;;32.20;7.18;;;;;;;5.61;100.00;102757.66;4911062;28;20047;-70
2022/05/08 00:52:29;;;;;;;24.55;6.82;;;;;;;5.57;100.00;102750.88;4925924;28;20038;-70
2022/05/08 00:54:55;;;;;;;32.88;7.70;;;;;;;5.56;100.00;102754.53;4912075;28;20050;-72
2022/05/08 00:57:21;;;;;;;34.67;6.63;;;;;;;5.52;100.00;102762.97;4923712;28;24707;-72
2022/05/08 00:59:46;;;;;;;32.03;6.65;;;;;;;5.43;100.00;102752.06;4923374;28;20093;-71
2022/05/08 01:02:12;;;;;;;35.15;7.53;;;;;;;5.40;100.00;102760.34;4926764;28;20076;-70
2022/05/08 01:04:38;;;;;;;40.33;7.78;;;;;;;5.26;100.00;102758.88;4932746;28;20046;-71
2022/05/08 01:07:04;;;;;;;36.78;7.07;;;;;;;5.18;100.00;102760.50;4906955;28;20050;-70
2022/05/08 01:09:29;;;;;;;25.67;5.60;;;;;;;5.11;100.00;102760.16;4919606;28;20034;-71
2022/05/08 01:11:55;;;;;;;30.35;7.10;;;;;;;5.11;100.00;102762.00;4910694;28;20073;-71
2022/05/08 01:14:22;;;;;;;24.50;6.05;;;;;;;5.06;100.00;102748.19;4938870;28;20062;-71
2022/05/08 01:16:47;;;;;;;28.98;6.22;;;;;;;5.09;100.00;102748.78;4915318;28;20059;-71
2022/05/08 01:19:13;;;;;;;21.13;5.65;;;;;;;5.07;100.00;102753.41;4927827;28;20058;-71
2022/05/08 01:21:42;;;;;;;36.33;6.50;;;;;;;5.15;100.00;102744.72;4926825;28;20065;-71
2022/05/08 01:24:09;;;;;;;33.08;6.25;;;;;;;5.13;100.00;102742.19;4915822;28;20050;-71
2022/05/08 01:26:35;;;;;;;35.40;5.97;;;;;;;5.19;100.00;102740.81;4926791;28;20031;-71
2022/05/08 01:29:01;;;;;;;34.08;6.82;;;;;;;5.16;100.00;102751.75;4912488;28;20165;-71
2022/05/08 01:31:26;;;;;;;26.30;6.55;;;;;;;5.06;100.00;102748.19;4922518;28;20045;-71
2022/05/08 01:33:52;;;;;;;23.73;5.97;;;;;;;4.99;100.00;102751.38;4907941;28;20081;-71
2022/05/08 01:36:17;;;;;;;28.25;6.57;;;;;;;4.90;100.00;102752.16;4926900;28;20063;-71
2022/05/08 01:38:43;;;;;;;34.63;6.97;;;;;;;4.85;100.00;102753.53;4912005;28;20042;-71
2022/05/08 01:41:08;;;;;;;33.20;6.55;;;;;;;4.74;100.00;102755.28;4926719;28;20039;-71
2022/05/08 01:43:37;;;;;;;23.27;5.55;;;;;;;4.62;100.00;102752.75;4929169;28;20054;-71
2022/05/08 01:46:03;;;;;;;25.65;6.50;;;;;;;4.53;100.00;102752.56;4916275;28;20046;-71
2022/05/08 01:48:30;;;;;;;27.60;6.05;;;;;;;4.47;100.00;102753.06;4930719;28;20046;-70
2022/05/08 01:50:57;;;;;;;32.20;7.03;;;;;;;4.50;100.00;102750.13;4892277;28;20039;-70
2022/05/08 01:53:25;;;;;;;30.45;6.82;;;;;;;4.49;100.00;102750.25;4925928;28;20042;-70
2022/05/08 01:55:55;;;;;;;28.38;6.18;;;;;;;4.45;100.00;102757.66;4926519;28;20035;-70
2022/05/08 01:58:25;;;;;;;27.20;6.57;;;;;;;4.57;100.00;102752.31;4936329;28;20446;-70
2022/05/08 02:00:51;;;;;;;29.80;5.50;;;;;;;4.49;100.00;102753.78;4904340;28;20046;-70
2022/05/08 02:03:18;;;;;;;24.05;6.03;;;;;;;4.50;100.00;102760.81;4928151;28;20050;-71
2022/05/08 02:05:44;;;;;;;29.90;7.03;;;;;;;4.47;100.00;102758.38;4923325;28;20065;-71
2022/05/08 02:08:10;;;;;;;24.52;6.15;;;;;;;4.41;100.00;102758.88;4914768;28;20215;-70
2022/05/08 02:10:36;;;;;;;32.67;6.18;;;;;;;4.28;100.00;102755.50;4905416;28;20065;-71
2022/05/08 02:13:02;;;;;;;20.23;5.93;;;;;;;4.19;100.00;102761.63;4907525;28;20660;-71
2022/05/08 02:15:31;;;;;;;30.40;6.45;;;;;;;4.20;100.00;102756.13;4935781;28;20038;-71
2022/05/08 02:18:01;;;;;;;20.10;6.30;;;;;;;4.16;100.00;102761.84;4905533;28;20057;-71
2022/05/08 02:20:27;;;;;;;31.13;6.00;;;;;;;4.06;100.00;102767.91;4927372;28;20030;-71
2022/05/08 02:22:52;;;;;;;23.35;5.95;;;;;;;4.00;100.00;102762.22;4925430;28;20073;-69
2022/05/08 02:25:19;;;;;;;27.88;6.78;;;;;;;3.92;100.00;102765.50;4920265;28;20046;-70
2022/05/08 02:27:49;;;;;;;25.95;6.13;;;;;;;3.89;100.00;102765.75;4914950;28;20645;-70
2022/05/08 02:30:16;;;;;;;33.65;6.68;;;;;;;3.90;100.00;102762.13;4917066;28;20406;-70
2022/05/08 02:32:42;;;;;;;21.75;5.72;;;;;;;3.93;100.00;102764.56;4922704;28;20034;-71
2022/05/08 02:35:09;;;;;;;29.85;7.28;;;;;;;3.87;100.00;102762.38;4907694;28;20042;-70
2022/05/08 02:37:38;;;;;;;11.38;4.90;;;;;;;3.85;100.00;102763.47;4926747;28;20034;-70
2022/05/08 02:40:06;;;;;;;21.00;5.35;;;;;;;3.87;100.00;102762.38;4918567;28;20106;-70
2022/05/08 02:42:32;;;;;;;35.08;7.45;;;;;;;3.96;100.00;102753.63;4923765;28;20026;-70
2022/05/08 02:44:57;;;;;;;25.10;6.28;;;;;;;4.07;100.00;102753.63;4908871;28;20149;-70
2022/05/08 02:47:22;;;;;;;33.72;6.40;;;;;;;4.18;100.00;102757.25;4926567;28;20636;-69
2022/05/08 02:49:48;;;;;;;26.33;6.10;;;;;;;4.26;100.00;102758.31;4916609;28;20470;-70
2022/05/08 02:52:13;;;;;;;22.20;5.75;;;;;;;4.39;100.00;102755.50;4909341;28;20546;-70
2022/05/08 02:54:39;;;;;;;28.38;5.78;;;;;;;4.44;100.00;102758.63;4923091;28;20454;-70
2022/05/08 02:59:48;;;;;;;26.67;6.00;;;;;;;4.58;100.00;102757.50;4924320;28;20064;-69
2022/05/08 03:02:14;;;;;;;27.67;6.30;;;;;;;4.62;100.00;102760.78;4910851;28;20072;-70
2022/05/08 03:04:39;;;;;;;24.10;5.85;;;;;;;4.72;100.00;102759.03;4923054;28;20230;-70
2022/05/08 03:07:06;;;;;;;29.73;5.40;;;;;;;4.70;100.00;102760.97;4904294;28;20129;-69
2022/05/08 03:09:31;;;;;;;25.50;5.85;;;;;;;4.71;100.00;102763.53;4922333;28;20061;-69
2022/05/08 03:11:56;;;;;;;20.58;4.93;;;;;;;4.70;100.00;102760.97;4920372;28;20095;-71
2022/05/08 03:14:23;;;;;;;22.73;5.28;;;;;;;4.63;100.00;102762.44;4910668;28;20046;-69
2022/05/08 03:16:49;;;;;;;17.17;5.18;;;;;;;4.70;100.00;102763.63;4919153;28;20038;-70
2022/05/08 03:19:14;;;;;;;21.63;5.13;;;;;;;4.68;100.00;102763.78;4911230;28;20054;-70
2022/05/08 03:21:40;;;;;;;18.92;5.07;;;;;;;4.62;100.00;102766.94;4924353;28;20054;-69
2022/05/08 03:24:07;;;;;;;23.25;5.05;;;;;;;4.58;100.00;102764.66;4900517;28;20437;-70
2022/05/08 03:26:33;;;;;;;13.70;5.00;;;;;;;4.44;100.00;102769.31;4922254;28;20042;-70
2022/05/08 03:28:59;;;;;;;21.98;4.90;;;;;;;4.37;100.00;102773.47;4905787;28;20125;-71
2022/05/08 03:31:24;;;;;;;17.98;5.25;;;;;;;4.31;100.00;102771.28;4924782;28;20117;-70
2022/05/08 03:33:50;;;;;;;20.67;5.40;;;;;;;4.25;100.00;102769.13;4928147;28;20150;-70
2022/05/08 03:36:15;;;;;;;20.10;5.05;;;;;;;4.24;100.00;102764.75;4912553;28;20126;-71
2022/05/08 03:38:45;;;;;;;24.67;5.20;;;;;;;4.34;100.00;102765.69;4926038;28;20081;-71
2022/05/08 03:41:17;;;;;;;26.52;5.07;;;;;;;4.37;100.00;102765.44;4910592;28;20128;-71
2022/05/08 03:43:46;;;;;;;28.30;5.32;;;;;;;4.39;100.00;102766.19;4923163;28;20046;-71
2022/05/08 03:46:13;;;;;;;17.75;4.97;;;;;;;4.35;100.00;102769.22;4907658;28;20085;-70
2022/05/08 03:48:38;;;;;;;23.92;5.47;;;;;;;4.31;100.00;102771.28;4923515;28;20656;-70
2022/05/08 03:51:04;;;;;;;26.80;6.35;;;;;;;4.34;100.00;102776.38;4909296;28;20034;-71
2022/05/08 03:53:29;;;;;;;25.33;5.43;;;;;;;4.36;100.00;102777.09;4926271;28;20105;-70
2022/05/08 03:55:55;;;;;;;27.90;5.15;;;;;;;4.41;100.00;102777.56;4923207;28;20050;-70
2022/05/08 03:58:20;;;;;;;22.00;5.22;;;;;;;4.43;100.00;102772.97;4903908;28;20042;-70
2022/05/08 04:00:46;;;;;;;22.17;6.25;;;;;;;4.41;100.00;102776.72;4925378;28;20157;-71
2022/05/08 04:03:11;;;;;;;19.48;4.78;;;;;;;4.34;100.00;102771.03;4910427;28;20069;-70
2022/05/08 04:05:38;;;;;;;12.07;4.68;;;;;;;4.33;100.00;102784.50;4922963;28;20055;-70
2022/05/08 04:08:04;;;;;;;23.10;4.70;;;;;;;4.30;100.00;102781.09;4910241;28;21001;-70
2022/05/08 04:10:29;;;;;;;22.20;5.47;;;;;;;4.29;100.00;102781.25;4924753;28;20182;-70
2022/05/08 04:12:54;;;;;;;20.20;5.25;;;;;;;4.29;100.00;102778.56;4911152;28;20046;-69
2022/05/08 04:18:04;;;;;;;15.95;4.63;;;;;;;4.31;100.00;102782.78;4926683;28;20056;-69
2022/05/08 04:20:29;;;;;;;15.93;5.05;;;;;;;4.32;100.00;102789.00;4906901;28;20130;-69
2022/05/08 04:25:39;;;;;;;20.83;4.82;;;;;;;4.27;100.00;102788.50;4908929;28;20081;-69
2022/05/08 04:28:04;;;;;;;19.52;4.82;;;;;;;4.32;100.00;102794.34;4926611;28;21268;-68
2022/05/08 04:30:30;;;;;;;21.92;4.93;;;;;;;4.37;100.00;102791.28;4913039;28;20053;-68
2022/05/08 04:32:55;;;;;;;18.58;4.07;;;;;;;4.36;100.00;102790.44;4938931;28;20062;-69
2022/05/08 04:35:21;;;;;;;15.80;4.10;;;;;;;4.44;100.00;102793.31;4924897;28;20038;-69
2022/05/08 04:37:46;;;;;;;17.38;4.22;;;;;;;4.49;100.00;102796.50;4926085;28;20045;-69
2022/05/08 04:40:12;;;;;;;21.35;5.32;;;;;;;4.52;100.00;102790.88;4925965;28;21050;-69
2022/05/08 04:42:37;;;;;;;24.25;4.82;;;;;;;4.68;100.00;102800.31;4910050;28;20057;-69
2022/05/08 04:45:03;;;;;;;20.05;4.10;;;;;;;4.82;100.00;102796.50;4914176;28;20042;-69
2022/05/08 04:47:29;;;;;;;20.75;4.47;;;;;;;4.95;100.00;102798.03;4914209;28;20053;-69
2022/05/08 04:49:54;;;;;;;22.70;3.88;;;;;;;5.10;100.00;102798.56;4927944;28;20161;-70
2022/05/08 04:52:20;;;;;;;17.17;3.83;;;;;;;5.24;100.00;102810.75;4913953;28;20165;-71
2022/05/08 04:54:45;;;;;;;14.43;4.22;;;;;;;5.39;100.00;102797.91;4928851;28;20038;-68
2022/05/08 04:57:10;;;;;;;12.68;4.18;;;;;;;5.54;100.00;102803.75;4903859;28;20030;-70
2022/05/08 04:59:36;;;;;;;14.02;4.10;;;;;;;5.68;100.00;102812.28;4917345;28;20038;-68
2022/05/08 05:02:02;;;;;;;18.55;3.70;;;;;;;5.79;100.00;102803.34;4928434;28;20220;-69
2022/05/08 05:04:28;;;;;;;18.80;3.85;;;;;;;5.96;100.00;102812.59;4911573;28;20094;-69
2022/05/08 05:06:54;;;;;;;17.02;3.35;;;;;;;6.11;100.00;102813.94;4930518;28;20034;-69
2022/05/08 05:09:20;;;;;;;15.63;3.28;;;;;;;6.29;100.00;102815.97;4913686;28;20043;-70
2022/05/08 05:11:45;;;;;;;19.33;3.55;;;;;;;6.51;100.00;102815.72;4908447;28;20076;-69
2022/05/08 05:14:11;;;;;;;12.27;3.47;;;;;;;7.37;100.00;102819.44;4914369;28;20112;-69
2022/05/08 05:16:36;;;;;;;15.35;3.15;;;;;;;8.87;100.00;102819.34;4930945;28;20037;-69
2022/05/08 05:19:02;;;;;;;16.00;3.00;;;;;;;10.40;100.00;102819.69;4927822;28;20093;-70
2022/05/08 05:21:27;;;;;;;11.25;2.40;;;;;;;11.80;100.00;102819.59;4914155;28;20069;-69
2022/05/08 05:23:52;;;;;;;12.75;2.55;;;;;;;12.73;100.00;102820.72;4928547;28;20056;-70
2022/05/08 05:26:18;;;;;;;14.75;2.78;;;;;;;13.34;100.00;102829.75;4904896;28;20042;-70
2022/05/08 05:28:44;;;;;;;13.73;2.30;;;;;;;13.88;77.45;102832.25;4925731;28;20038;-69
2022/05/08 05:31:12;;;;;;;13.73;2.50;;;;;;;14.63;77.69;102830.31;4913477;28;20108;-69
2022/05/08 05:33:38;;;;;;;9.57;2.17;;;;;;;14.84;64.50;102833.06;4942160;28;20058;-69
2022/05/08 05:36:03;;;;;;;11.75;2.20;;;;;;;14.98;62.01;102832.16;4915726;28;20039;-69
2022/05/08 05:38:29;;;;;;;14.52;2.67;;;;;;;15.17;58.73;102846.13;4929204;28;20439;-70
2022/05/08 05:40:54;;;;;;;17.55;2.05;;;;;;;15.38;57.17;102835.25;4942297;28;20212;-69
2022/05/08 05:43:20;;;;;;;15.18;2.95;;;;;;;15.28;56.27;102843.72;4911731;28;20038;-70
2022/05/08 05:45:45;;;;;;;8.57;2.10;;;;;;;15.08;56.45;102841.84;4936076;28;20044;-69
2022/05/08 05:48:10;;;;;;;11.98;2.22;;;;;;;14.48;58.99;102843.88;4912668;28;20046;-70
2022/05/08 05:50:37;;;;;;;11.55;2.40;;;;;;;14.51;59.45;102844.38;4929128;28;20030;-69
2022/05/08 05:53:02;;;;;;;11.55;1.88;;;;;;;14.97;60.39;102840.50;4911947;28;20090;-70
2022/05/08 05:55:28;;;;;;;9.10;2.30;;;;;;;15.78;55.98;102849.16;4926141;28;20045;-69
2022/05/08 05:57:53;;;;;;;12.27;2.75;;;;;;;16.31;53.74;102844.00;4934878;28;20093;-70
2022/05/08 06:00:20;;;;;;;8.68;1.92;;;;;;;16.61;52.67;102851.88;4914741;28;20529;-69
2022/05/08 06:02:47;;;;;;;11.13;2.08;;;;;;;16.33;51.91;102850.09;4928215;28;20066;-70
2022/05/08 06:05:14;;;;;;;11.32;2.40;;;;;;;16.27;52.64;102855.50;4902966;28;20042;-70
2022/05/08 06:07:40;;;;;;;11.32;2.50;;;;;;;16.33;51.72;102860.97;4928764;28;20061;-69
2022/05/08 06:10:10;;;;;;;15.43;2.53;;;;;;;16.59;50.82;102862.13;4914462;28;20050;-68
2022/05/08 06:12:35;;;;;;;6.95;1.80;;;;;;;16.39;50.71;102871.06;4924877;28;20118;-69
2022/05/08 06:15:01;;;;;;;9.55;1.95;;;;;;;16.72;51.11;102864.88;4911693;28;20390;-68
2022/05/08 06:17:26;;;;;;;15.10;2.88;;;;;;;17.41;48.51;102872.78;4928231;28;20038;-68
2022/05/08 06:19:52;;;;;;;12.32;2.45;;;;;;;17.95;47.36;102864.59;4927000;28;20081;-69
2022/05/08 06:22:17;;;;;;;12.88;2.47;;;;;;;17.28;46.52;102867.31;4911396;28;20058;-69
2022/05/08 06:24:43;;;;;;;12.52;2.72;;;;;;;16.85;47.71;102870.41;4926096;28;20185;-70
2022/05/08 06:27:08;;;;;;;7.70;2.05;;;;;;;17.33;46.97;102870.25;4910819;28;20719;-69
2022/05/08 06:29:34;;;;;;;10.77;2.17;;;;;;;16.73;48.08;102866.56;4927350;28;20027;-69
2022/05/08 06:32:00;;;;;;;9.50;2.10;;;;;;;16.35;49.20;102871.63;4915265;28;20050;-68
2022/05/08 06:34:28;;;;;;;15.23;2.38;;;;;;;16.66;50.10;102871.13;4926625;28;20121;-68
2022/05/08 06:36:54;;;;;;;9.07;2.05;;;;;;;16.92;49.07;102875.88;4877538;28;20106;-69
2022/05/08 06:39:20;;;;;;;11.88;1.75;;;;;;;17.16;47.30;102871.69;4933602;28;20042;-69
2022/05/08 06:41:46;;;;;;;13.23;2.20;;;;;;;16.27;49.40;102883.53;4929075;28;20454;-69
2022/05/08 06:44:13;;;;;;;12.65;2.63;;;;;;;14.93;52.42;102886.19;4909125;28;20133;-69
2022/05/08 06:46:39;;;;;;;9.38;1.85;;;;;;;14.18;53.57;102891.84;4924590;28;20081;-69
2022/05/08 06:49:05;;;;;;;17.77;2.72;;;;;;;14.48;54.46;102888.09;4911063;28;20039;-69
2022/05/08 06:51:32;;;;;;;14.85;2.53;;;;;;;14.26;56.24;102889.06;4925976;28;20049;-67
2022/05/08 06:53:57;;;;;;;15.20;2.33;;;;;;;13.95;59.27;102891.97;4906787;28;20034;-68
2022/05/08 06:56:25;;;;;;;10.57;2.05;;;;;;;13.97;59.96;102901.59;4925471;28;20475;-68
2022/05/08 07:01:35;;;;;;;10.07;2.35;;;;;;;16.87;51.97;102887.34;4925441;28;20505;-69
2022/05/08 07:04:03;;;;;;;16.55;3.05;;;;;;;18.14;46.18;102896.41;4927444;28;20046;-68
2022/05/08 07:06:29;;;;;;;11.80;2.05;;;;;;;18.13;45.05;102895.59;4910465;28;20053;-69
2022/05/08 07:08:55;;;;;;;13.30;2.45;;;;;;;17.75;46.67;102903.56;4914497;28;20152;-69
2022/05/08 07:11:21;;;;;;;11.45;2.95;;;;;;;17.94;44.01;102884.75;4906391;28;20046;-69
2022/05/08 07:13:47;;;;;;;12.13;2.92;;;;;;;18.74;42.44;102891.63;4925472;28;20064;-68
2022/05/08 07:16:13;;;;;;;16.02;2.75;;;;;;;18.86;42.08;102894.50;4912096;28;20125;-69
2022/05/08 07:18:38;;;;;;;15.30;2.53;;;;;;;19.34;41.25;102895.84;4925783;28;20026;-69
2022/05/08 07:21:05;;;;;;;14.05;2.40;;;;;;;19.63;39.73;102887.03;4915140;28;20026;-69
2022/05/08 07:23:31;;;;;;;19.35;2.65;;;;;;;18.30;41.22;102898.69;4927687;28;20039;-69
2022/05/08 07:25:57;;;;;;;11.07;2.10;;;;;;;16.89;43.30;102893.44;4925981;28;20128;-69
2022/05/08 07:28:22;;;;;;;17.05;3.25;;;;;;;15.43;46.87;102913.41;4910806;28;20461;-68
2022/05/08 07:30:49;;;;;;;12.88;2.08;;;;;;;15.81;47.88;102907.69;4921594;28;20568;-68
2022/05/08 07:33:16;;;;;;;17.77;2.92;;;;;;;17.06;45.47;102906.66;4919356;28;20050;-68
2022/05/08 07:38:28;;;;;;;14.95;2.65;;;;;;;18.11;42.49;102913.19;4911513;28;20042;-69
2022/05/08 07:40:53;;;;;;;11.35;2.85;;;;;;;18.99;40.95;102915.41;4923628;28;20034;-70
2022/05/08 07:43:18;;;;;;;9.73;2.72;;;;;;;19.05;40.22;102906.34;4906972;28;23025;-69
2022/05/08 07:45:44;;;;;;;13.30;2.75;;;;;;;18.87;41.31;102914.44;4925361;28;20043;-68
2022/05/08 07:48:09;;;;;;;10.88;2.15;;;;;;;19.97;39.80;102912.16;4925308;28;20085;-68
2022/05/08 07:50:35;;;;;;;10.23;2.50;;;;;;;20.15;38.57;102903.16;4910708;28;20165;-68
2022/05/08 07:53:01;;;;;;;13.52;2.50;;;;;;;19.75;38.74;102912.56;4927000;28;20089;-68
2022/05/08 07:55:26;;;;;;;13.38;2.60;;;;;;;19.00;40.24;102923.41;4910395;28;20034;-68
2022/05/08 07:57:52;;;;;;;10.77;2.65;;;;;;;18.38;40.85;102904.97;4925488;28;20042;-68
2022/05/08 08:00:18;;;;;;;14.98;3.47;;;;;;;18.90;40.49;102911.28;4910205;28;20486;-68
2022/05/08 08:02:43;;;;;;;8.95;2.78;;;;;;;19.36;41.19;102904.69;4920586;28;20073;-68
2022/05/08 08:05:09;;;;;;;18.95;3.83;;;;;;;19.20;40.13;102912.38;4917430;28;20537;-68
2022/05/08 08:07:34;;;;;;;15.32;2.40;;;;;;;20.16;38.94;102913.03;4912925;28;20126;-68
2022/05/08 08:09:59;;;;;;;12.98;2.60;;;;;;;20.37;37.40;102911.75;4923515;28;20045;-70
2022/05/08 08:12:25;;;;;;;9.88;2.28;;;;;;;19.96;38.76;102910.50;4908714;28;20046;-68
2022/05/08 08:14:50;;;;;;;12.95;2.63;;;;;;;20.32;37.94;102919.78;4923209;28;20490;-69
2022/05/08 08:17:16;;;;;;;13.15;3.08;;;;;;;20.14;37.53;102918.72;4910417;28;20042;-70
2022/05/08 08:19:41;;;;;;;11.63;2.22;;;;;;;19.02;39.18;102925.91;4927955;28;20157;-69
2022/05/08 08:22:07;;;;;;;11.07;2.58;;;;;;;18.07;40.80;102928.31;4912055;28;20070;-69
2022/05/08 08:24:32;;;;;;;13.07;2.20;;;;;;;16.91;43.84;102934.88;4928378;28;20050;-69
2022/05/08 08:26:58;;;;;;;15.90;2.70;;;;;;;16.99;43.13;102930.31;4931347;28;20078;-69
2022/05/08 08:29:23;;;;;;;16.45;3.10;;;;;;;17.44;42.56;102930.63;4913875;28;20161;-69
2022/05/08 08:31:49;;;;;;;10.55;2.58;;;;;;;17.77;41.53;102928.78;4931351;28;21013;-69
2022/05/08 08:34:14;;;;;;;10.07;2.85;;;;;;;16.81;42.91;102939.91;4915429;28;20475;-69
2022/05/08 08:36:40;;;;;;;9.60;2.58;;;;;;;16.72;43.31;102935.63;4929791;28;20044;-69
2022/05/08 08:39:05;;;;;;;12.05;2.30;;;;;;;17.97;40.91;102927.91;4915871;28;20046;-69
2022/05/08 08:41:35;;;;;;;12.50;3.25;;;;;;;17.75;42.24;102928.09;4931320;28;20068;-69
2022/05/08 08:49:38;;;;;;;16.75;3.33;;;;;;;18.56;39.86;102932.38;4925270;28;20060;-69
2022/05/08 08:52:04;;;;;;;13.27;2.67;;;;;;;17.99;39.88;102939.47;4921431;28;20092;-70
2022/05/08 08:54:30;;;;;;;11.05;2.60;;;;;;;17.19;41.61;102936.66;4930424;28;20038;-69
2022/05/08 08:56:55;;;;;;;11.80;2.40;;;;;;;17.32;41.94;102930.41;4903659;28;20089;-69
2022/05/08 08:59:21;;;;;;;10.25;2.70;;;;;;;17.85;41.44;102925.84;4924256;28;21063;-69
2022/05/08 09:01:46;;;;;;;9.57;2.40;;;;;;;18.42;40.13;102922.56;4911872;28;21131;-69
2022/05/08 09:04:13;;;;;;;10.45;2.75;;;;;;;18.48;40.24;102935.38;4928519;28;20049;-69
2022/05/08 09:06:39;;;;;;;16.75;3.28;;;;;;;18.65;38.96;102931.09;4914869;28;20054;-70
2022/05/08 09:09:27;;;;;;;9.63;2.30;;;;;;;18.39;38.91;102944.81;4928121;28;20070;-69
2022/05/08 09:11:56;;;;;;;11.73;3.17;;;;;;;17.26;42.39;102947.56;4916322;28;20049;-69
2022/05/08 09:14:33;;;;;;;9.40;2.75;;;;;;;17.94;41.82;102942.00;4930269;28;20063;-69
2022/05/08 09:16:59;;;;;;;9.73;2.45;;;;;;;18.60;39.41;102947.28;4930019;28;20097;-69
2022/05/08 09:19:37;;;;;;;10.25;2.47;;;;;;;18.99;39.63;102943.59;4926391;28;20471;-70
2022/05/08 09:22:07;;;;;;;17.20;3.38;;;;;;;18.64;40.14;102944.94;4930387;28;23580;-70
2022/05/08 09:24:33;;;;;;;13.18;3.00;;;;;;;17.83;41.19;102948.91;4912868;28;20050;-70
2022/05/08 09:27:12;;;;;;;17.08;2.70;;;;;;;17.04;43.05;102939.56;4912516;28;20035;-70
2022/05/08 09:29:38;;;;;;;15.38;3.70;;;;;;;17.16;42.84;102940.66;4914031;28;20038;-70
2022/05/08 09:32:04;;;;;;;13.25;2.60;;;;;;;17.72;41.58;102944.88;4927485;28;20030;-70
2022/05/08 09:34:29;;;;;;;11.45;3.40;;;;;;;17.48;41.08;102940.03;4913163;28;20176;-70
2022/05/08 09:37:08;;;;;;;13.68;2.47;;;;;;;16.81;43.16;102934.47;4930027;28;20039;-69
2022/05/08 09:39:33;;;;;;;11.48;3.10;;;;;;;17.48;43.01;102940.91;4921030;28;21063;-70
2022/05/08 09:41:59;;;;;;;15.07;3.35;;;;;;;17.92;41.62;102935.91;4934874;28;20034;-71
2022/05/08 09:44:24;;;;;;;25.05;3.08;;;;;;;17.77;42.22;102934.22;4930256;28;20104;-70
2022/05/08 09:46:50;;;;;;;17.40;2.92;;;;;;;18.22;42.05;102926.22;4927197;28;20046;-71
2022/05/08 09:49:19;;;;;;;14.13;3.30;;;;;;;18.12;40.85;102920.34;4928738;28;20030;-72
2022/05/08 09:51:46;;;;;;;15.40;2.92;;;;;;;17.78;42.40;102922.28;4913318;28;20046;-71
2022/05/08 09:54:13;;;;;;;15.15;2.90;;;;;;;17.79;41.20;102920.38;4921385;28;20097;-71
2022/05/08 09:56:38;;;;;;;11.93;3.13;;;;;;;18.04;41.73;102920.56;4913530;28;20200;-72
2022/05/08 09:59:07;;;;;;;17.15;3.33;;;;;;;18.02;41.73;102925.41;4943605;28;20300;-70
2022/05/08 10:01:34;;;;;;;13.30;3.28;;;;;;;17.89;41.53;102921.63;4926195;28;20039;-70
2022/05/08 10:04:00;;;;;;;13.57;3.25;;;;;;;17.96;42.33;102924.34;4916336;28;20073;-70
2022/05/08 10:06:28;;;;;;;14.55;3.13;;;;;;;17.73;41.48;102924.78;4927471;28;20580;-70
2022/05/08 10:13:53;;;;;;;18.13;3.58;;;;;;;17.93;41.46;102929.38;4903975;28;20050;-69
2022/05/08 10:14:24;;;;;;;10.93;3.05;;;;;;;17.79;41.15;102920.38;4927170;28;20045;-69
2022/05/08 10:16:55;;;;;;;16.30;2.95;;;;;;;17.70;40.90;102927.91;4927344;28;20114;-69
2022/05/08 10:19:27;;;;;;;10.68;2.47;;;;;;;17.65;41.40;102922.25;4912108;28;20049;-69
2022/05/08 10:21:56;;;;;;;13.88;2.50;;;;;;;17.81;41.32;102924.59;4924142;28;20062;-69
2022/05/08 10:24:31;;;;;;;12.10;2.72;;;;;;;17.94;40.99;102918.28;4909986;28;20050;-69
2022/05/08 10:27:29;;;;;;;16.20;2.90;;;;;;;17.36;41.80;102921.59;4924547;28;20614;-69
2022/05/08 10:29:57;;;;;;;11.50;2.92;;;;;;;17.25;43.26;102913.22;4907365;28;20042;-69
2022/05/08 10:32:28;;;;;;;11.02;2.80;;;;;;;17.48;41.90;102910.06;4928143;28;20066;-70
2022/05/08 10:35:03;;;;;;;14.68;2.88;;;;;;;17.95;42.31;102924.56;4912955;28;20046;-70
2022/05/08 10:37:30;;;;;;;9.77;2.47;;;;;;;18.04;41.36;102918.69;4929845;28;20121;-71
2022/05/08 10:39:56;;;;;;;15.80;2.97;;;;;;;18.38;40.18;102918.59;4926869;28;20038;-70
2022/05/08 10:42:28;;;;;;;14.30;3.08;;;;;;;18.11;41.48;102915.94;4911691;28;20042;-69
2022/05/08 10:44:54;;;;;;;11.15;2.88;;;;;;;18.25;41.72;102920.34;4926488;28;20053;-70
2022/05/08 10:47:40;;;;;;;12.10;2.60;;;;;;;18.55;39.52;102917.91;4911708;28;20053;-71
2022/05/08 10:50:10;;;;;;;14.43;2.80;;;;;;;18.27;38.27;102914.66;4928180;28;20471;-69
2022/05/08 10:52:40;;;;;;;7.90;2.40;;;;;;;17.67;39.37;102911.97;4910575;28;20117;-70
2022/05/08 10:55:08;;;;;;;8.05;2.35;;;;;;;17.86;38.74;102913.88;4927361;28;20053;-70
2022/05/08 10:57:35;;;;;;;13.68;2.78;;;;;;;18.50;37.97;102911.44;4926593;28;20053;-71
2022/05/08 11:00:06;;;;;;;12.27;3.17;;;;;;;18.37;39.70;102912.31;4929844;28;20034;-69
2022/05/08 11:02:39;;;;;;;14.23;2.60;;;;;;;18.75;38.93;102903.38;4919216;28;20138;-70
2022/05/08 11:05:06;;;;;;;11.65;2.58;;;;;;;18.78;39.60;102911.16;4927110;28;20046;-70
2022/05/08 11:07:31;;;;;;;10.57;2.83;;;;;;;19.30;37.81;102899.06;4925576;28;20034;-71
2022/05/08 11:09:58;;;;;;;10.32;3.45;;;;;;;19.62;37.30;102899.00;4915132;28;20475;-71
2022/05/08 11:12:24;;;;;;;8.95;2.40;;;;;;;19.76;36.80;102903.34;4926296;28;20634;-71
2022/05/08 11:14:49;;;;;;;14.60;3.03;;;;;;;19.09;37.68;102907.59;4910855;28;20042;-71
2022/05/08 11:17:16;;;;;;;13.90;2.83;;;;;;;19.07;38.24;102901.53;4923740;28;20137;-72
2022/05/08 11:19:52;;;;;;;12.65;2.97;;;;;;;19.10;38.65;102903.81;4904022;28;22788;-72
2022/05/08 11:22:17;;;;;;;10.68;2.72;;;;;;;18.93;37.76;102894.47;4921197;28;20382;-72
2022/05/08 11:24:45;;;;;;;9.52;2.67;;;;;;;18.43;38.76;102896.97;4910391;28;20046;-71
2022/05/08 11:27:13;;;;;;;11.70;2.85;;;;;;;18.34;38.47;102897.19;4926646;28;20089;-72
2022/05/08 11:29:49;;;;;;;12.10;2.58;;;;;;;19.23;34.50;102900.13;4918715;28;20042;-71
2022/05/08 11:38:02;;;;;;;10.65;2.67;;;;;;;19.32;37.21;102887.91;4910439;28;24227;-71
2022/05/08 11:40:27;;;;;;;14.15;3.53;;;;;;;19.42;37.25;102890.13;4928275;28;20044;-72
2022/05/08 11:42:53;;;;;;;11.20;3.00;;;;;;;19.27;37.18;102885.84;4910567;28;20027;-72